sensor_id;sensor_type;location;lat;lon;timestamp;P1;durP1;ratioP1;P2;durP2;ratioP2
43744;SDS011;29359;53.048;8.732;2023-03-08T00:01:50;3.15;;;1.75;;
43744;SDS011;29359;53.048;8.732;2023-03-08T00:03:54;6.47;;;2.00;;
43744;SDS011;29359;53.048;8.732;2023-03-08T00:05:57;3.40;;;1.88;;
43744;SDS011;29359;53.048;8.732;2023-03-08T00:07:58;4.88;;;1.75;;
43744;SDS011;29359;53.048;8.732;2023-03-08T00:10:00;2.20;;;1.73;;
43744;SDS011;29359;53.048;8.732;2023-03-08T00:12:01;3.40;;;2.72;;
43744;SDS011;29359;53.048;8.732;2023-03-08T00:14:03;1.90;;;1.73;;
43744;SDS011;29359;53.048;8.732;2023-03-08T00:16:05;7.20;;;2.20;;
43744;SDS011;29359;53.048;8.732;2023-03-08T00:18:08;4.90;;;2.30;;
43744;SDS011;29359;53.048;8.732;2023-03-08T00:20:10;2.10;;;1.90;;
43744;SDS011;29359;53.048;8.732;2023-03-08T00:22:13;1.77;;;1.67;;
43744;SDS011;29359;53.048;8.732;2023-03-08T00:24:14;10.02;;;2.42;;
43744;SDS011;29359;53.048;8.732;2023-03-08T00:26:16;3.55;;;2.10;;
43744;SDS011;29359;53.048;8.732;2023-03-08T00:28:18;2.72;;;1.85;;
43744;SDS011;29359;53.048;8.732;2023-03-08T00:30:19;3.13;;;2.10;;
43744;SDS011;29359;53.048;8.732;2023-03-08T00:32:23;7.88;;;2.13;;
43744;SDS011;29359;53.048;8.732;2023-03-08T00:34:25;3.83;;;2.45;;
43744;SDS011;29359;53.048;8.732;2023-03-08T00:36:27;6.80;;;2.20;;
43744;SDS011;29359;53.048;8.732;2023-03-08T00:38:29;3.50;;;2.20;;
43744;SDS011;29359;53.048;8.732;2023-03-08T00:40:32;5.03;;;2.30;;
43744;SDS011;29359;53.048;8.732;2023-03-08T00:42:34;4.72;;;2.05;;
43744;SDS011;29359;53.048;8.732;2023-03-08T00:44:35;2.58;;;2.05;;
43744;SDS011;29359;53.048;8.732;2023-03-08T00:46:37;6.00;;;3.00;;
43744;SDS011;29359;53.048;8.732;2023-03-08T00:48:38;3.53;;;1.98;;
43744;SDS011;29359;53.048;8.732;2023-03-08T00:50:41;3.67;;;2.33;;
43744;SDS011;29359;53.048;8.732;2023-03-08T00:52:42;3.05;;;1.75;;
43744;SDS011;29359;53.048;8.732;2023-03-08T00:54:44;5.35;;;2.25;;
43744;SDS011;29359;53.048;8.732;2023-03-08T00:56:45;6.93;;;2.67;;
43744;SDS011;29359;53.048;8.732;2023-03-08T00:58:47;4.95;;;2.65;;
43744;SDS011;29359;53.048;8.732;2023-03-08T01:00:48;3.58;;;2.15;;
43744;SDS011;29359;53.048;8.732;2023-03-08T01:02:50;6.20;;;2.45;;
43744;SDS011;29359;53.048;8.732;2023-03-08T01:04:52;2.55;;;2.10;;
43744;SDS011;29359;53.048;8.732;2023-03-08T01:06:53;4.28;;;1.92;;
43744;SDS011;29359;53.048;8.732;2023-03-08T01:08:55;2.42;;;1.83;;
43744;SDS011;29359;53.048;8.732;2023-03-08T01:10:57;2.90;;;2.08;;
43744;SDS011;29359;53.048;8.732;2023-03-08T01:12:59;3.72;;;2.15;;
43744;SDS011;29359;53.048;8.732;2023-03-08T01:15:01;2.85;;;1.83;;
43744;SDS011;29359;53.048;8.732;2023-03-08T01:17:04;6.25;;;1.90;;
43744;SDS011;29359;53.048;8.732;2023-03-08T01:19:06;2.20;;;1.85;;
43744;SDS011;29359;53.048;8.732;2023-03-08T01:21:08;1.95;;;1.70;;
43744;SDS011;29359;53.048;8.732;2023-03-08T01:23:10;2.40;;;2.00;;
43744;SDS011;29359;53.048;8.732;2023-03-08T01:25:12;4.55;;;1.83;;
43744;SDS011;29359;53.048;8.732;2023-03-08T01:27:13;4.13;;;1.98;;
43744;SDS011;29359;53.048;8.732;2023-03-08T01:29:16;2.83;;;1.77;;
43744;SDS011;29359;53.048;8.732;2023-03-08T01:31:19;3.95;;;1.70;;
43744;SDS011;29359;53.048;8.732;2023-03-08T01:33:22;3.22;;;1.80;;
43744;SDS011;29359;53.048;8.732;2023-03-08T01:35:25;2.85;;;1.77;;
43744;SDS011;29359;53.048;8.732;2023-03-08T01:37:26;6.40;;;1.90;;
43744;SDS011;29359;53.048;8.732;2023-03-08T01:39:28;9.23;;;2.38;;
43744;SDS011;29359;53.048;8.732;2023-03-08T01:41:30;5.40;;;2.05;;
43744;SDS011;29359;53.048;8.732;2023-03-08T01:43:32;4.55;;;2.00;;
43744;SDS011;29359;53.048;8.732;2023-03-08T01:46:00;4.60;;;1.95;;
43744;SDS011;29359;53.048;8.732;2023-03-08T01:48:07;6.60;;;1.90;;
43744;SDS011;29359;53.048;8.732;2023-03-08T01:50:09;2.45;;;2.10;;
43744;SDS011;29359;53.048;8.732;2023-03-08T01:52:13;5.20;;;2.25;;
43744;SDS011;29359;53.048;8.732;2023-03-08T01:54:26;5.45;;;2.05;;
43744;SDS011;29359;53.048;8.732;2023-03-08T01:56:31;3.85;;;1.85;;
43744;SDS011;29359;53.048;8.732;2023-03-08T01:58:34;5.18;;;2.22;;
43744;SDS011;29359;53.048;8.732;2023-03-08T02:00:36;3.38;;;2.10;;
43744;SDS011;29359;53.048;8.732;2023-03-08T02:02:40;7.57;;;2.33;;
43744;SDS011;29359;53.048;8.732;2023-03-08T02:04:43;2.80;;;2.30;;
43744;SDS011;29359;53.048;8.732;2023-03-08T02:06:45;2.85;;;2.28;;
43744;SDS011;29359;53.048;8.732;2023-03-08T02:08:47;3.78;;;2.60;;
43744;SDS011;29359;53.048;8.732;2023-03-08T02:10:48;4.60;;;2.50;;
43744;SDS011;29359;53.048;8.732;2023-03-08T02:12:50;3.00;;;2.58;;
43744;SDS011;29359;53.048;8.732;2023-03-08T02:14:52;5.35;;;3.10;;
43744;SDS011;29359;53.048;8.732;2023-03-08T02:16:55;4.70;;;3.30;;
43744;SDS011;29359;53.048;8.732;2023-03-08T02:18:58;5.03;;;3.13;;
43744;SDS011;29359;53.048;8.732;2023-03-08T02:21:04;5.20;;;3.72;;
43744;SDS011;29359;53.048;8.732;2023-03-08T02:23:10;6.50;;;3.90;;
43744;SDS011;29359;53.048;8.732;2023-03-08T02:25:17;4.60;;;4.20;;
43744;SDS011;29359;53.048;8.732;2023-03-08T02:27:20;5.95;;;4.55;;
43744;SDS011;29359;53.048;8.732;2023-03-08T02:29:27;10.30;;;4.72;;
43744;SDS011;29359;53.048;8.732;2023-03-08T02:31:28;7.40;;;5.07;;
43744;SDS011;29359;53.048;8.732;2023-03-08T02:33:30;6.60;;;5.47;;
43744;SDS011;29359;53.048;8.732;2023-03-08T02:35:32;5.88;;;5.38;;
43744;SDS011;29359;53.048;8.732;2023-03-08T02:37:35;8.93;;;5.50;;
43744;SDS011;29359;53.048;8.732;2023-03-08T02:39:37;5.82;;;5.22;;
43744;SDS011;29359;53.048;8.732;2023-03-08T02:41:38;6.05;;;5.45;;
43744;SDS011;29359;53.048;8.732;2023-03-08T02:43:40;6.68;;;5.60;;
43744;SDS011;29359;53.048;8.732;2023-03-08T02:45:42;7.80;;;5.53;;
43744;SDS011;29359;53.048;8.732;2023-03-08T02:47:44;6.00;;;5.43;;
43744;SDS011;29359;53.048;8.732;2023-03-08T02:49:46;8.68;;;6.50;;
43744;SDS011;29359;53.048;8.732;2023-03-08T02:51:47;6.70;;;6.00;;
43744;SDS011;29359;53.048;8.732;2023-03-08T02:53:48;10.55;;;7.05;;
43744;SDS011;29359;53.048;8.732;2023-03-08T02:55:50;8.00;;;6.60;;
43744;SDS011;29359;53.048;8.732;2023-03-08T02:57:51;9.98;;;7.38;;
43744;SDS011;29359;53.048;8.732;2023-03-08T02:59:53;10.10;;;7.65;;
43744;SDS011;29359;53.048;8.732;2023-03-08T03:01:55;8.52;;;6.80;;
43744;SDS011;29359;53.048;8.732;2023-03-08T03:03:57;8.55;;;6.97;;
43744;SDS011;29359;53.048;8.732;2023-03-08T03:05:58;9.02;;;6.80;;
43744;SDS011;29359;53.048;8.732;2023-03-08T03:08:00;7.82;;;7.03;;
43744;SDS011;29359;53.048;8.732;2023-03-08T03:10:02;11.52;;;9.15;;
43744;SDS011;29359;53.048;8.732;2023-03-08T03:12:04;9.73;;;7.22;;
43744;SDS011;29359;53.048;8.732;2023-03-08T03:14:06;11.65;;;9.65;;
43744;SDS011;29359;53.048;8.732;2023-03-08T03:16:09;9.23;;;7.90;;
43744;SDS011;29359;53.048;8.732;2023-03-08T03:18:12;8.52;;;6.95;;
43744;SDS011;29359;53.048;8.732;2023-03-08T03:20:14;8.90;;;7.35;;
43744;SDS011;29359;53.048;8.732;2023-03-08T03:22:15;10.77;;;8.25;;
43744;SDS011;29359;53.048;8.732;2023-03-08T03:24:17;9.73;;;7.40;;
43744;SDS011;29359;53.048;8.732;2023-03-08T03:26:19;12.63;;;8.60;;
43744;SDS011;29359;53.048;8.732;2023-03-08T03:28:22;9.82;;;7.68;;
43744;SDS011;29359;53.048;8.732;2023-03-08T03:30:23;16.65;;;8.15;;
43744;SDS011;29359;53.048;8.732;2023-03-08T03:32:25;13.55;;;8.32;;
43744;SDS011;29359;53.048;8.732;2023-03-08T03:34:27;10.20;;;8.07;;
43744;SDS011;29359;53.048;8.732;2023-03-08T03:36:29;15.88;;;8.65;;
43744;SDS011;29359;53.048;8.732;2023-03-08T03:38:31;12.43;;;8.80;;
43744;SDS011;29359;53.048;8.732;2023-03-08T03:40:32;10.05;;;8.15;;
43744;SDS011;29359;53.048;8.732;2023-03-08T03:42:34;13.52;;;9.10;;
43744;SDS011;29359;53.048;8.732;2023-03-08T03:44:35;12.80;;;8.55;;
43744;SDS011;29359;53.048;8.732;2023-03-08T03:46:37;13.77;;;9.30;;
43744;SDS011;29359;53.048;8.732;2023-03-08T03:48:39;14.88;;;9.20;;
43744;SDS011;29359;53.048;8.732;2023-03-08T03:50:40;12.45;;;8.63;;
43744;SDS011;29359;53.048;8.732;2023-03-08T03:52:42;13.07;;;9.07;;
43744;SDS011;29359;53.048;8.732;2023-03-08T03:54:43;17.30;;;9.32;;
43744;SDS011;29359;53.048;8.732;2023-03-08T03:56:45;16.30;;;9.32;;
43744;SDS011;29359;53.048;8.732;2023-03-08T03:58:47;14.27;;;8.88;;
43744;SDS011;29359;53.048;8.732;2023-03-08T04:00:48;12.73;;;8.93;;
43744;SDS011;29359;53.048;8.732;2023-03-08T04:02:50;13.52;;;8.82;;
43744;SDS011;29359;53.048;8.732;2023-03-08T04:04:52;15.05;;;8.65;;
43744;SDS011;29359;53.048;8.732;2023-03-08T04:06:53;11.30;;;9.13;;
43744;SDS011;29359;53.048;8.732;2023-03-08T04:08:59;12.43;;;8.60;;
43744;SDS011;29359;53.048;8.732;2023-03-08T04:11:05;12.77;;;8.48;;
43744;SDS011;29359;53.048;8.732;2023-03-08T04:13:06;10.90;;;8.88;;
43744;SDS011;29359;53.048;8.732;2023-03-08T04:15:08;10.90;;;9.27;;
43744;SDS011;29359;53.048;8.732;2023-03-08T04:17:09;11.25;;;8.27;;
43744;SDS011;29359;53.048;8.732;2023-03-08T04:19:11;18.63;;;11.20;;
43744;SDS011;29359;53.048;8.732;2023-03-08T04:21:13;14.23;;;8.50;;
43744;SDS011;29359;53.048;8.732;2023-03-08T04:23:15;16.52;;;9.88;;
43744;SDS011;29359;53.048;8.732;2023-03-08T04:25:17;13.38;;;9.13;;
43744;SDS011;29359;53.048;8.732;2023-03-08T04:27:19;11.35;;;8.95;;
43744;SDS011;29359;53.048;8.732;2023-03-08T04:29:20;10.93;;;8.60;;
43744;SDS011;29359;53.048;8.732;2023-03-08T04:31:26;9.68;;;8.68;;
43744;SDS011;29359;53.048;8.732;2023-03-08T04:33:29;12.05;;;9.07;;
43744;SDS011;29359;53.048;8.732;2023-03-08T04:35:30;12.88;;;8.43;;
43744;SDS011;29359;53.048;8.732;2023-03-08T04:37:32;13.23;;;8.57;;
43744;SDS011;29359;53.048;8.732;2023-03-08T04:39:33;13.82;;;8.40;;
43744;SDS011;29359;53.048;8.732;2023-03-08T04:41:35;12.75;;;8.65;;
43744;SDS011;29359;53.048;8.732;2023-03-08T04:43:40;9.18;;;8.23;;
43744;SDS011;29359;53.048;8.732;2023-03-08T04:45:45;10.07;;;8.60;;
43744;SDS011;29359;53.048;8.732;2023-03-08T04:47:47;14.18;;;8.88;;
43744;SDS011;29359;53.048;8.732;2023-03-08T04:49:48;13.65;;;9.23;;
43744;SDS011;29359;53.048;8.732;2023-03-08T04:51:50;12.10;;;9.43;;
43744;SDS011;29359;53.048;8.732;2023-03-08T04:53:51;14.07;;;9.55;;
43744;SDS011;29359;53.048;8.732;2023-03-08T04:55:53;13.55;;;9.00;;
43744;SDS011;29359;53.048;8.732;2023-03-08T04:57:55;13.90;;;8.98;;
43744;SDS011;29359;53.048;8.732;2023-03-08T04:59:56;12.35;;;9.50;;
43744;SDS011;29359;53.048;8.732;2023-03-08T05:01:58;10.68;;;8.65;;
43744;SDS011;29359;53.048;8.732;2023-03-08T05:03:59;12.25;;;8.93;;
43744;SDS011;29359;53.048;8.732;2023-03-08T05:06:01;12.57;;;9.40;;
43744;SDS011;29359;53.048;8.732;2023-03-08T05:08:02;10.90;;;8.90;;
43744;SDS011;29359;53.048;8.732;2023-03-08T05:10:05;15.45;;;9.77;;
43744;SDS011;29359;53.048;8.732;2023-03-08T05:12:07;11.60;;;9.43;;
43744;SDS011;29359;53.048;8.732;2023-03-08T05:14:08;13.30;;;9.75;;
43744;SDS011;29359;53.048;8.732;2023-03-08T05:16:10;15.82;;;9.25;;
43744;SDS011;29359;53.048;8.732;2023-03-08T05:18:12;16.15;;;9.35;;
43744;SDS011;29359;53.048;8.732;2023-03-08T05:20:13;14.45;;;9.77;;
43744;SDS011;29359;53.048;8.732;2023-03-08T05:22:15;15.07;;;10.02;;
43744;SDS011;29359;53.048;8.732;2023-03-08T05:24:16;13.00;;;9.85;;
43744;SDS011;29359;53.048;8.732;2023-03-08T05:26:18;13.35;;;9.85;;
43744;SDS011;29359;53.048;8.732;2023-03-08T05:28:20;13.95;;;10.50;;
43744;SDS011;29359;53.048;8.732;2023-03-08T05:30:23;13.60;;;10.20;;
43744;SDS011;29359;53.048;8.732;2023-03-08T05:32:25;13.80;;;10.20;;
43744;SDS011;29359;53.048;8.732;2023-03-08T05:34:27;14.55;;;10.48;;
43744;SDS011;29359;53.048;8.732;2023-03-08T05:36:29;16.55;;;11.07;;
43744;SDS011;29359;53.048;8.732;2023-03-08T05:38:30;13.18;;;10.45;;
43744;SDS011;29359;53.048;8.732;2023-03-08T05:40:32;13.77;;;10.23;;
43744;SDS011;29359;53.048;8.732;2023-03-08T05:42:33;13.85;;;10.02;;
43744;SDS011;29359;53.048;8.732;2023-03-08T05:44:35;21.23;;;10.50;;
43744;SDS011;29359;53.048;8.732;2023-03-08T05:46:37;15.82;;;10.05;;
43744;SDS011;29359;53.048;8.732;2023-03-08T05:48:39;16.85;;;11.00;;
43744;SDS011;29359;53.048;8.732;2023-03-08T05:50:40;12.48;;;10.20;;
43744;SDS011;29359;53.048;8.732;2023-03-08T05:52:42;15.82;;;10.77;;
43744;SDS011;29359;53.048;8.732;2023-03-08T05:54:43;17.77;;;10.05;;
43744;SDS011;29359;53.048;8.732;2023-03-08T05:56:45;17.48;;;10.77;;
43744;SDS011;29359;53.048;8.732;2023-03-08T05:58:46;12.77;;;10.07;;
43744;SDS011;29359;53.048;8.732;2023-03-08T06:00:48;12.73;;;10.45;;
43744;SDS011;29359;53.048;8.732;2023-03-08T06:02:50;17.00;;;11.02;;
43744;SDS011;29359;53.048;8.732;2023-03-08T06:04:51;14.40;;;9.98;;
43744;SDS011;29359;53.048;8.732;2023-03-08T06:06:53;16.40;;;10.68;;
43744;SDS011;29359;53.048;8.732;2023-03-08T06:08:54;14.10;;;10.15;;
43744;SDS011;29359;53.048;8.732;2023-03-08T06:10:56;14.90;;;11.10;;
43744;SDS011;29359;53.048;8.732;2023-03-08T06:12:58;15.90;;;10.50;;
43744;SDS011;29359;53.048;8.732;2023-03-08T06:14:59;15.23;;;10.43;;
43744;SDS011;29359;53.048;8.732;2023-03-08T06:17:01;17.25;;;11.18;;
43744;SDS011;29359;53.048;8.732;2023-03-08T06:19:02;16.55;;;11.43;;
43744;SDS011;29359;53.048;8.732;2023-03-08T06:21:05;15.73;;;11.25;;
43744;SDS011;29359;53.048;8.732;2023-03-08T06:23:08;16.25;;;11.45;;
43744;SDS011;29359;53.048;8.732;2023-03-08T06:25:10;17.83;;;11.45;;
43744;SDS011;29359;53.048;8.732;2023-03-08T06:27:11;14.02;;;10.80;;
43744;SDS011;29359;53.048;8.732;2023-03-08T06:29:13;16.85;;;11.80;;
43744;SDS011;29359;53.048;8.732;2023-03-08T06:31:17;17.17;;;11.25;;
43744;SDS011;29359;53.048;8.732;2023-03-08T06:33:20;21.58;;;12.55;;
43744;SDS011;29359;53.048;8.732;2023-03-08T06:35:24;14.30;;;11.25;;
43744;SDS011;29359;53.048;8.732;2023-03-08T06:37:26;16.33;;;11.52;;
43744;SDS011;29359;53.048;8.732;2023-03-08T06:39:27;15.38;;;11.00;;
43744;SDS011;29359;53.048;8.732;2023-03-08T06:41:31;19.30;;;12.40;;
43744;SDS011;29359;53.048;8.732;2023-03-08T06:43:33;22.27;;;11.93;;
43744;SDS011;29359;53.048;8.732;2023-03-08T06:45:38;16.92;;;12.13;;
43744;SDS011;29359;53.048;8.732;2023-03-08T06:47:41;16.85;;;12.13;;
43744;SDS011;29359;53.048;8.732;2023-03-08T06:49:42;22.02;;;12.10;;
43744;SDS011;29359;53.048;8.732;2023-03-08T06:51:46;17.05;;;11.63;;
43744;SDS011;29359;53.048;8.732;2023-03-08T06:53:47;18.38;;;11.88;;
43744;SDS011;29359;53.048;8.732;2023-03-08T06:55:49;20.65;;;12.15;;
43744;SDS011;29359;53.048;8.732;2023-03-08T06:57:50;18.63;;;11.82;;
43744;SDS011;29359;53.048;8.732;2023-03-08T06:59:52;17.40;;;11.65;;
43744;SDS011;29359;53.048;8.732;2023-03-08T07:01:53;16.67;;;11.52;;
43744;SDS011;29359;53.048;8.732;2023-03-08T07:03:55;15.77;;;11.73;;
43744;SDS011;29359;53.048;8.732;2023-03-08T07:05:57;17.70;;;11.20;;
43744;SDS011;29359;53.048;8.732;2023-03-08T07:08:00;21.52;;;11.27;;
43744;SDS011;29359;53.048;8.732;2023-03-08T07:10:02;18.95;;;11.40;;
43744;SDS011;29359;53.048;8.732;2023-03-08T07:12:04;16.35;;;11.52;;
43744;SDS011;29359;53.048;8.732;2023-03-08T07:14:08;15.93;;;11.80;;
43744;SDS011;29359;53.048;8.732;2023-03-08T07:16:10;15.95;;;11.52;;
43744;SDS011;29359;53.048;8.732;2023-03-08T07:18:13;19.35;;;12.13;;
43744;SDS011;29359;53.048;8.732;2023-03-08T07:20:17;16.00;;;10.85;;
43744;SDS011;29359;53.048;8.732;2023-03-08T07:22:20;15.57;;;11.05;;
43744;SDS011;29359;53.048;8.732;2023-03-08T07:24:21;16.48;;;11.27;;
43744;SDS011;29359;53.048;8.732;2023-03-08T07:26:23;16.05;;;11.48;;
43744;SDS011;29359;53.048;8.732;2023-03-08T07:28:24;16.88;;;11.20;;
43744;SDS011;29359;53.048;8.732;2023-03-08T07:30:26;16.15;;;12.60;;
43744;SDS011;29359;53.048;8.732;2023-03-08T07:32:28;18.70;;;11.60;;
43744;SDS011;29359;53.048;8.732;2023-03-08T07:34:29;21.30;;;12.00;;
43744;SDS011;29359;53.048;8.732;2023-03-08T07:36:31;16.27;;;11.40;;
43744;SDS011;29359;53.048;8.732;2023-03-08T07:38:33;17.02;;;11.80;;
43744;SDS011;29359;53.048;8.732;2023-03-08T07:40:34;17.60;;;12.02;;
43744;SDS011;29359;53.048;8.732;2023-03-08T07:42:36;16.05;;;11.13;;
43744;SDS011;29359;53.048;8.732;2023-03-08T07:44:37;18.60;;;11.55;;
43744;SDS011;29359;53.048;8.732;2023-03-08T07:46:39;18.30;;;11.70;;
43744;SDS011;29359;53.048;8.732;2023-03-08T07:48:40;17.23;;;11.55;;
43744;SDS011;29359;53.048;8.732;2023-03-08T07:50:42;22.67;;;11.73;;
43744;SDS011;29359;53.048;8.732;2023-03-08T07:52:44;17.52;;;12.40;;
43744;SDS011;29359;53.048;8.732;2023-03-08T07:54:45;16.88;;;12.60;;
43744;SDS011;29359;53.048;8.732;2023-03-08T07:56:46;22.52;;;12.55;;
43744;SDS011;29359;53.048;8.732;2023-03-08T07:58:48;18.35;;;12.60;;
43744;SDS011;29359;53.048;8.732;2023-03-08T08:00:50;17.00;;;13.05;;
43744;SDS011;29359;53.048;8.732;2023-03-08T08:02:51;18.48;;;12.52;;
43744;SDS011;29359;53.048;8.732;2023-03-08T08:04:54;23.00;;;12.68;;
43744;SDS011;29359;53.048;8.732;2023-03-08T08:06:55;20.73;;;12.80;;
43744;SDS011;29359;53.048;8.732;2023-03-08T08:08:59;23.90;;;12.50;;
43744;SDS011;29359;53.048;8.732;2023-03-08T08:11:01;20.88;;;12.85;;
43744;SDS011;29359;53.048;8.732;2023-03-08T08:13:09;18.95;;;12.65;;
43744;SDS011;29359;53.048;8.732;2023-03-08T08:15:11;22.02;;;12.52;;
43744;SDS011;29359;53.048;8.732;2023-03-08T08:17:13;20.10;;;12.18;;
43744;SDS011;29359;53.048;8.732;2023-03-08T08:19:14;19.02;;;11.30;;
43744;SDS011;29359;53.048;8.732;2023-03-08T08:21:17;19.55;;;11.98;;
43744;SDS011;29359;53.048;8.732;2023-03-08T08:23:19;18.60;;;12.20;;
43744;SDS011;29359;53.048;8.732;2023-03-08T08:25:20;17.75;;;11.70;;
43744;SDS011;29359;53.048;8.732;2023-03-08T08:27:22;23.73;;;12.95;;
43744;SDS011;29359;53.048;8.732;2023-03-08T08:29:23;18.63;;;13.43;;
43744;SDS011;29359;53.048;8.732;2023-03-08T08:31:27;20.95;;;13.23;;
43744;SDS011;29359;53.048;8.732;2023-03-08T08:33:31;21.35;;;12.77;;
43744;SDS011;29359;53.048;8.732;2023-03-08T08:35:33;19.38;;;12.43;;
43744;SDS011;29359;53.048;8.732;2023-03-08T08:37:43;19.38;;;12.57;;
43744;SDS011;29359;53.048;8.732;2023-03-08T08:39:45;23.20;;;12.30;;
43744;SDS011;29359;53.048;8.732;2023-03-08T08:41:47;21.60;;;12.20;;
43744;SDS011;29359;53.048;8.732;2023-03-08T08:43:49;19.15;;;12.20;;
43744;SDS011;29359;53.048;8.732;2023-03-08T08:45:52;19.70;;;11.77;;
43744;SDS011;29359;53.048;8.732;2023-03-08T08:47:55;22.80;;;13.05;;
43744;SDS011;29359;53.048;8.732;2023-03-08T08:49:57;18.33;;;11.77;;
43744;SDS011;29359;53.048;8.732;2023-03-08T08:51:58;17.27;;;10.88;;
43744;SDS011;29359;53.048;8.732;2023-03-08T08:54:00;17.92;;;11.23;;
43744;SDS011;29359;53.048;8.732;2023-03-08T08:56:11;18.20;;;10.70;;
43744;SDS011;29359;53.048;8.732;2023-03-08T08:58:28;16.90;;;11.43;;
43744;SDS011;29359;53.048;8.732;2023-03-08T09:00:30;18.65;;;11.27;;
43744;SDS011;29359;53.048;8.732;2023-03-08T09:02:33;16.00;;;10.88;;
43744;SDS011;29359;53.048;8.732;2023-03-08T09:04:35;16.77;;;10.75;;
43744;SDS011;29359;53.048;8.732;2023-03-08T09:06:36;15.20;;;10.60;;
43744;SDS011;29359;53.048;8.732;2023-03-08T09:08:38;19.10;;;11.43;;
43744;SDS011;29359;53.048;8.732;2023-03-08T09:10:40;13.63;;;9.40;;
43744;SDS011;29359;53.048;8.732;2023-03-08T09:12:42;14.18;;;10.07;;
43744;SDS011;29359;53.048;8.732;2023-03-08T09:14:43;16.85;;;11.32;;
43744;SDS011;29359;53.048;8.732;2023-03-08T09:16:45;16.27;;;10.68;;
43744;SDS011;29359;53.048;8.732;2023-03-08T09:18:47;14.95;;;10.27;;
43744;SDS011;29359;53.048;8.732;2023-03-08T09:20:49;15.20;;;10.18;;
43744;SDS011;29359;53.048;8.732;2023-03-08T09:22:50;14.80;;;10.40;;
43744;SDS011;29359;53.048;8.732;2023-03-08T09:24:52;14.45;;;9.45;;
43744;SDS011;29359;53.048;8.732;2023-03-08T09:26:53;15.02;;;9.80;;
43744;SDS011;29359;53.048;8.732;2023-03-08T09:28:56;14.30;;;9.68;;
43744;SDS011;29359;53.048;8.732;2023-03-08T09:30:58;18.05;;;10.48;;
43744;SDS011;29359;53.048;8.732;2023-03-08T09:33:00;16.92;;;10.07;;
43744;SDS011;29359;53.048;8.732;2023-03-08T09:35:02;14.70;;;10.25;;
43744;SDS011;29359;53.048;8.732;2023-03-08T09:37:05;13.20;;;9.88;;
43744;SDS011;29359;53.048;8.732;2023-03-08T09:39:09;15.25;;;10.90;;
43744;SDS011;29359;53.048;8.732;2023-03-08T09:43:28;17.08;;;10.40;;
43744;SDS011;29359;53.048;8.732;2023-03-08T09:45:44;16.40;;;10.25;;
43744;SDS011;29359;53.048;8.732;2023-03-08T09:47:51;17.08;;;10.80;;
43744;SDS011;29359;53.048;8.732;2023-03-08T09:49:54;19.63;;;11.77;;
43744;SDS011;29359;53.048;8.732;2023-03-08T09:52:15;14.93;;;10.02;;
43744;SDS011;29359;53.048;8.732;2023-03-08T09:54:22;12.80;;;9.68;;
43744;SDS011;29359;53.048;8.732;2023-03-08T09:56:32;14.93;;;10.13;;
43744;SDS011;29359;53.048;8.732;2023-03-08T10:05:55;14.30;;;8.52;;
43744;SDS011;29359;53.048;8.732;2023-03-08T10:08:01;12.60;;;9.60;;
43744;SDS011;29359;53.048;8.732;2023-03-08T10:14:53;10.23;;;8.18;;
43744;SDS011;29359;53.048;8.732;2023-03-08T10:17:03;10.23;;;8.57;;
43744;SDS011;29359;53.048;8.732;2023-03-08T10:21:28;13.45;;;8.13;;
43744;SDS011;29359;53.048;8.732;2023-03-08T10:23:34;15.88;;;8.90;;
43744;SDS011;29359;53.048;8.732;2023-03-08T10:25:36;16.17;;;8.40;;
43744;SDS011;29359;53.048;8.732;2023-03-08T10:27:39;11.52;;;8.45;;
43744;SDS011;29359;53.048;8.732;2023-03-08T10:29:46;13.48;;;8.45;;
43744;SDS011;29359;53.048;8.732;2023-03-08T10:31:49;13.50;;;9.48;;
43744;SDS011;29359;53.048;8.732;2023-03-08T10:33:54;12.77;;;8.55;;
43744;SDS011;29359;53.048;8.732;2023-03-08T10:36:18;11.52;;;7.68;;
43744;SDS011;29359;53.048;8.732;2023-03-08T10:38:28;10.55;;;8.50;;
43744;SDS011;29359;53.048;8.732;2023-03-08T10:40:30;10.85;;;7.65;;
43744;SDS011;29359;53.048;8.732;2023-03-08T10:42:32;10.57;;;7.70;;
43744;SDS011;29359;53.048;8.732;2023-03-08T10:46:56;9.48;;;7.57;;
43744;SDS011;29359;53.048;8.732;2023-03-08T10:49:07;11.90;;;7.45;;
43744;SDS011;29359;53.048;8.732;2023-03-08T10:53:23;10.80;;;7.45;;
43744;SDS011;29359;53.048;8.732;2023-03-08T10:55:27;10.30;;;7.07;;
43744;SDS011;29359;53.048;8.732;2023-03-08T10:57:30;11.45;;;7.32;;
43744;SDS011;29359;53.048;8.732;2023-03-08T10:59:33;8.55;;;6.65;;
43744;SDS011;29359;53.048;8.732;2023-03-08T11:01:46;12.60;;;6.97;;
43744;SDS011;29359;53.048;8.732;2023-03-08T11:06:01;10.45;;;6.97;;
43744;SDS011;29359;53.048;8.732;2023-03-08T11:08:33;8.63;;;6.63;;
43744;SDS011;29359;53.048;8.732;2023-03-08T11:10:36;14.52;;;7.05;;
43744;SDS011;29359;53.048;8.732;2023-03-08T11:12:38;8.70;;;6.55;;
43744;SDS011;29359;53.048;8.732;2023-03-08T11:14:40;8.50;;;7.40;;
43744;SDS011;29359;53.048;8.732;2023-03-08T11:19:05;8.35;;;6.75;;
43744;SDS011;29359;53.048;8.732;2023-03-08T11:26:12;11.80;;;8.50;;
43744;SDS011;29359;53.048;8.732;2023-03-08T11:28:25;11.02;;;8.00;;
43744;SDS011;29359;53.048;8.732;2023-03-08T11:33:26;12.07;;;6.75;;
43744;SDS011;29359;53.048;8.732;2023-03-08T11:36:05;8.90;;;5.85;;
43744;SDS011;29359;53.048;8.732;2023-03-08T11:40:23;10.10;;;6.50;;
43744;SDS011;29359;53.048;8.732;2023-03-08T11:47:38;9.45;;;6.50;;
43744;SDS011;29359;53.048;8.732;2023-03-08T11:59:28;8.75;;;6.40;;
43744;SDS011;29359;53.048;8.732;2023-03-08T12:01:55;11.60;;;6.50;;
43744;SDS011;29359;53.048;8.732;2023-03-08T12:04:05;8.45;;;6.88;;
43744;SDS011;29359;53.048;8.732;2023-03-08T12:08:37;10.38;;;7.22;;
43744;SDS011;29359;53.048;8.732;2023-03-08T12:10:49;12.02;;;7.28;;
43744;SDS011;29359;53.048;8.732;2023-03-08T12:12:58;10.07;;;7.35;;
43744;SDS011;29359;53.048;8.732;2023-03-08T12:17:43;9.70;;;6.97;;
43744;SDS011;29359;53.048;8.732;2023-03-08T12:19:50;10.25;;;6.97;;
43744;SDS011;29359;53.048;8.732;2023-03-08T12:24:44;9.55;;;5.93;;
43744;SDS011;29359;53.048;8.732;2023-03-08T12:26:45;8.75;;;6.40;;
43744;SDS011;29359;53.048;8.732;2023-03-08T12:28:55;7.38;;;5.88;;
43744;SDS011;29359;53.048;8.732;2023-03-08T12:33:18;7.32;;;5.22;;
43744;SDS011;29359;53.048;8.732;2023-03-08T12:37:28;5.82;;;5.03;;
43744;SDS011;29359;53.048;8.732;2023-03-08T12:39:31;11.40;;;5.18;;
43744;SDS011;29359;53.048;8.732;2023-03-08T12:41:36;9.65;;;5.03;;
43744;SDS011;29359;53.048;8.732;2023-03-08T12:43:38;8.30;;;4.70;;
43744;SDS011;29359;53.048;8.732;2023-03-08T12:45:42;7.85;;;4.47;;
43744;SDS011;29359;53.048;8.732;2023-03-08T12:48:08;7.95;;;4.75;;
43744;SDS011;29359;53.048;8.732;2023-03-08T12:50:15;10.43;;;7.13;;
43744;SDS011;29359;53.048;8.732;2023-03-08T12:54:20;6.38;;;4.40;;
43744;SDS011;29359;53.048;8.732;2023-03-08T12:58:31;10.80;;;5.03;;
43744;SDS011;29359;53.048;8.732;2023-03-08T13:00:35;7.07;;;4.60;;
43744;SDS011;29359;53.048;8.732;2023-03-08T13:02:38;7.03;;;4.57;;
43744;SDS011;29359;53.048;8.732;2023-03-08T13:04:40;6.60;;;4.43;;
43744;SDS011;29359;53.048;8.732;2023-03-08T13:09:13;5.93;;;4.75;;
43744;SDS011;29359;53.048;8.732;2023-03-08T13:11:16;6.30;;;4.07;;
43744;SDS011;29359;53.048;8.732;2023-03-08T13:13:27;5.18;;;4.68;;
43744;SDS011;29359;53.048;8.732;2023-03-08T13:15:39;8.90;;;4.38;;
43744;SDS011;29359;53.048;8.732;2023-03-08T13:19:50;6.55;;;4.10;;
43744;SDS011;29359;53.048;8.732;2023-03-08T13:21:54;7.65;;;3.72;;
43744;SDS011;29359;53.048;8.732;2023-03-08T13:24:15;4.68;;;3.85;;
43744;SDS011;29359;53.048;8.732;2023-03-08T13:26:41;6.32;;;3.53;;